sensor_id;sensor_type;location;lat;lon;timestamp;pressure;altitude;pressure_sealevel;temperature;humidity
54306;BME280;66145;45.188;5.712;2023-07-28T00:00:39;98796.47;;;21.79;54.83
54306;BME280;66145;45.188;5.712;2023-07-28T00:03:04;98789.25;;;21.75;54.70
54306;BME280;66145;45.188;5.712;2023-07-28T00:05:29;98800.72;;;21.77;54.73
54306;BME280;66145;45.188;5.712;2023-07-28T00:07:55;98811.03;;;21.80;54.77
54306;BME280;66145;45.188;5.712;2023-07-28T00:10:20;98808.41;;;21.71;54.83
54306;BME280;66145;45.188;5.712;2023-07-28T00:12:45;98817.00;;;21.69;54.80
54306;BME280;66145;45.188;5.712;2023-07-28T00:15:11;98838.09;;;21.78;54.77
54306;BME280;66145;45.188;5.712;2023-07-28T00:17:36;98815.63;;;21.63;54.74
54306;BME280;66145;45.188;5.712;2023-07-28T00:20:02;98831.13;;;21.68;54.70
54306;BME280;66145;45.188;5.712;2023-07-28T00:22:27;98810.69;;;21.56;54.82
54306;BME280;66145;45.188;5.712;2023-07-28T00:24:53;98853.81;;;21.77;54.93
54306;BME280;66145;45.188;5.712;2023-07-28T00:27:18;98840.50;;;21.79;54.83
54306;BME280;66145;45.188;5.712;2023-07-28T00:29:44;98839.47;;;21.71;54.75
54306;BME280;66145;45.188;5.712;2023-07-28T00:32:09;98855.09;;;21.80;54.73
54306;BME280;66145;45.188;5.712;2023-07-28T00:34:34;98853.47;;;21.79;54.61
54306;BME280;66145;45.188;5.712;2023-07-28T00:37:00;98808.25;;;21.55;54.76
54306;BME280;66145;45.188;5.712;2023-07-28T00:39:25;98851.50;;;21.79;54.82
54306;BME280;66145;45.188;5.712;2023-07-28T00:41:50;98836.25;;;21.69;54.64
54306;BME280;66145;45.188;5.712;2023-07-28T00:44:16;98852.19;;;21.76;54.63
54306;BME280;66145;45.188;5.712;2023-07-28T00:46:43;98845.91;;;21.76;54.85
54306;BME280;66145;45.188;5.712;2023-07-28T00:49:08;98844.28;;;21.75;54.69
54306;BME280;66145;45.188;5.712;2023-07-28T00:51:35;98856.22;;;21.79;54.77
54306;BME280;66145;45.188;5.712;2023-07-28T00:54:01;98848.75;;;21.79;54.85
54306;BME280;66145;45.188;5.712;2023-07-28T00:56:27;98853.47;;;21.79;54.70
54306;BME280;66145;45.188;5.712;2023-07-28T00:58:52;98847.97;;;21.79;54.85
54306;BME280;66145;45.188;5.712;2023-07-28T01:01:18;98798.53;;;21.57;54.94
54306;BME280;66145;45.188;5.712;2023-07-28T01:03:43;98841.66;;;21.78;54.81
54306;BME280;66145;45.188;5.712;2023-07-28T01:06:20;98842.47;;;21.79;54.80
54306;BME280;66145;45.188;5.712;2023-07-28T01:09:02;98828.34;;;21.68;54.67
54306;BME280;66145;45.188;5.712;2023-07-28T01:11:31;98842.78;;;21.77;54.68
54306;BME280;66145;45.188;5.712;2023-07-28T01:13:56;98831.56;;;21.70;54.87
54306;BME280;66145;45.188;5.712;2023-07-28T01:16:22;98836.81;;;21.75;54.77
54306;BME280;66145;45.188;5.712;2023-07-28T01:18:48;98816.63;;;21.58;54.87
54306;BME280;66145;45.188;5.712;2023-07-28T01:21:34;98848.75;;;21.79;54.85
54306;BME280;66145;45.188;5.712;2023-07-28T01:24:15;98835.13;;;21.70;54.80
54306;BME280;66145;45.188;5.712;2023-07-28T01:26:46;98831.31;;;21.75;54.95
54306;BME280;66145;45.188;5.712;2023-07-28T01:29:12;98834.06;;;21.75;54.80
54306;BME280;66145;45.188;5.712;2023-07-28T01:31:40;98827.44;;;21.76;54.70
54306;BME280;66145;45.188;5.712;2023-07-28T01:34:05;98815.06;;;21.70;54.80
54306;BME280;66145;45.188;5.712;2023-07-28T01:36:31;98811.50;;;21.69;54.73
54306;BME280;66145;45.188;5.712;2023-07-28T01:38:56;98814.13;;;21.78;54.71
54306;BME280;66145;45.188;5.712;2023-07-28T01:41:24;98814.47;;;21.77;54.87
54306;BME280;66145;45.188;5.712;2023-07-28T01:43:49;98802.09;;;21.70;54.66
54306;BME280;66145;45.188;5.712;2023-07-28T01:46:15;98807.38;;;21.76;54.67
54306;BME280;66145;45.188;5.712;2023-07-28T01:48:40;98806.69;;;21.79;54.69
54306;BME280;66145;45.188;5.712;2023-07-28T01:51:05;98806.22;;;21.77;54.72
54306;BME280;66145;45.188;5.712;2023-07-28T01:53:31;98785.94;;;21.69;54.59
54306;BME280;66145;45.188;5.712;2023-07-28T01:55:56;98765.38;;;21.54;54.57
54306;BME280;66145;45.188;5.712;2023-07-28T01:58:22;98803.13;;;21.78;54.53
54306;BME280;66145;45.188;5.712;2023-07-28T02:00:47;98794.06;;;21.78;54.79
54306;BME280;66145;45.188;5.712;2023-07-28T02:03:12;98789.72;;;21.77;54.96
54306;BME280;66145;45.188;5.712;2023-07-28T02:05:38;98755.66;;;21.56;54.80
54306;BME280;66145;45.188;5.712;2023-07-28T02:08:03;98786.59;;;21.78;54.69
54306;BME280;66145;45.188;5.712;2023-07-28T02:10:29;98774.91;;;21.69;54.73
54306;BME280;66145;45.188;5.712;2023-07-28T02:12:54;98781.00;;;21.75;54.67
54306;BME280;66145;45.188;5.712;2023-07-28T02:15:20;98762.31;;;21.68;54.73
54306;BME280;66145;45.188;5.712;2023-07-28T02:17:45;98774.34;;;21.76;54.73
54306;BME280;66145;45.188;5.712;2023-07-28T02:20:11;98775.59;;;21.78;54.79
54306;BME280;66145;45.188;5.712;2023-07-28T02:22:41;98779.84;;;21.76;54.83
54306;BME280;66145;45.188;5.712;2023-07-28T02:25:07;98778.22;;;21.75;54.68
54306;BME280;66145;45.188;5.712;2023-07-28T02:27:33;98774.66;;;21.74;54.67
54306;BME280;66145;45.188;5.712;2023-07-28T02:29:58;98762.75;;;21.70;54.76
54306;BME280;66145;45.188;5.712;2023-07-28T02:32:23;98783.84;;;21.78;54.79
54306;BME280;66145;45.188;5.712;2023-07-28T02:34:49;98769.97;;;21.75;54.92
54306;BME280;66145;45.188;5.712;2023-07-28T02:37:15;98775.13;;;21.76;55.02
54306;BME280;66145;45.188;5.712;2023-07-28T02:39:41;98766.41;;;21.74;54.89
54306;BME280;66145;45.188;5.712;2023-07-28T02:42:06;98763.66;;;21.74;54.88
54306;BME280;66145;45.188;5.712;2023-07-28T02:44:31;98771.59;;;21.76;54.73
54306;BME280;66145;45.188;5.712;2023-07-28T02:46:57;98760.34;;;21.68;54.96
54306;BME280;66145;45.188;5.712;2023-07-28T02:49:22;98754.28;;;21.63;54.93
54306;BME280;66145;45.188;5.712;2023-07-28T02:51:48;98774.34;;;21.76;54.75
54306;BME280;66145;45.188;5.712;2023-07-28T02:54:13;98774.78;;;21.78;54.84
54306;BME280;66145;45.188;5.712;2023-07-28T02:56:38;98774.78;;;21.78;54.84
54306;BME280;66145;45.188;5.712;2023-07-28T02:59:04;98771.22;;;21.77;54.88
54306;BME280;66145;45.188;5.712;2023-07-28T03:01:30;98739.25;;;21.60;54.73
54306;BME280;66145;45.188;5.712;2023-07-28T03:04:01;98769.97;;;21.75;54.82
54306;BME280;66145;45.188;5.712;2023-07-28T03:06:26;98753.94;;;21.64;55.09
54306;BME280;66145;45.188;5.712;2023-07-28T03:08:52;98768.72;;;21.72;54.76
54306;BME280;66145;45.188;5.712;2023-07-28T03:11:17;98758.72;;;21.67;54.79
54306;BME280;66145;45.188;5.712;2023-07-28T03:13:42;98772.84;;;21.78;54.90
54306;BME280;66145;45.188;5.712;2023-07-28T03:16:08;98771.59;;;21.76;55.14
54306;BME280;66145;45.188;5.712;2023-07-28T03:18:33;98784.66;;;21.79;54.99
54306;BME280;66145;45.188;5.712;2023-07-28T03:20:59;98783.84;;;21.78;55.01
54306;BME280;66145;45.188;5.712;2023-07-28T03:23:24;98789.34;;;21.78;54.99
54306;BME280;66145;45.188;5.712;2023-07-28T03:25:50;98785.34;;;21.76;55.13
54306;BME280;66145;45.188;5.712;2023-07-28T03:28:15;98779.28;;;21.70;55.09
54306;BME280;66145;45.188;5.712;2023-07-28T03:30:40;98801.50;;;21.77;55.10
54306;BME280;66145;45.188;5.712;2023-07-28T03:33:05;98804.63;;;21.76;55.11
54306;BME280;66145;45.188;5.712;2023-07-28T03:35:31;98791.44;;;21.69;55.07
54306;BME280;66145;45.188;5.712;2023-07-28T03:37:56;98790.63;;;21.68;55.15
54306;BME280;66145;45.188;5.712;2023-07-28T03:40:21;98797.41;;;21.71;55.25
54306;BME280;66145;45.188;5.712;2023-07-28T03:42:47;98803.47;;;21.77;55.20
54306;BME280;66145;45.188;5.712;2023-07-28T03:45:12;98809.44;;;21.79;55.13
54306;BME280;66145;45.188;5.712;2023-07-28T03:47:38;98779.84;;;21.63;55.32
54306;BME280;66145;45.188;5.712;2023-07-28T03:50:05;98794.66;;;21.71;55.18
54306;BME280;66145;45.188;5.712;2023-07-28T03:52:30;98780.84;;;21.58;55.07
54306;BME280;66145;45.188;5.712;2023-07-28T03:54:56;98800.94;;;21.71;55.13
54306;BME280;66145;45.188;5.712;2023-07-28T03:57:21;98804.63;;;21.76;55.11
54306;BME280;66145;45.188;5.712;2023-07-28T03:59:46;98812.97;;;21.79;55.47
54306;BME280;66145;45.188;5.712;2023-07-28T04:02:12;98824.00;;;21.79;55.29
54306;BME280;66145;45.188;5.712;2023-07-28T04:04:37;98826.28;;;21.77;55.48
54306;BME280;66145;45.188;5.712;2023-07-28T04:07:02;98823.31;;;21.70;55.32
54306;BME280;66145;45.188;5.712;2023-07-28T04:09:28;98831.22;;;21.71;55.43
54306;BME280;66145;45.188;5.712;2023-07-28T04:11:53;98839.47;;;21.71;55.53
54306;BME280;66145;45.188;5.712;2023-07-28T04:14:18;98850.72;;;21.79;55.43
54306;BME280;66145;45.188;5.712;2023-07-28T04:16:44;98867.25;;;21.79;55.51
54306;BME280;66145;45.188;5.712;2023-07-28T04:19:09;98878.72;;;21.81;55.55
54306;BME280;66145;45.188;5.712;2023-07-28T04:21:34;98873.06;;;21.77;55.79
54306;BME280;66145;45.188;5.712;2023-07-28T04:24:00;98868.72;;;21.76;55.57
54306;BME280;66145;45.188;5.712;2023-07-28T04:26:25;98865.16;;;21.76;55.70
54306;BME280;66145;45.188;5.712;2023-07-28T04:28:50;98866.78;;;21.77;55.59
54306;BME280;66145;45.188;5.712;2023-07-28T04:31:16;98865.16;;;21.76;55.80
54306;BME280;66145;45.188;5.712;2023-07-28T04:33:42;98829.00;;;21.52;55.69
54306;BME280;66145;45.188;5.712;2023-07-28T04:36:07;98867.25;;;21.79;56.00
54306;BME280;66145;45.188;5.712;2023-07-28T04:38:33;98875.03;;;21.77;55.87
54306;BME280;66145;45.188;5.712;2023-07-28T04:40:58;98872.28;;;21.77;55.79
54306;BME280;66145;45.188;5.712;2023-07-28T04:43:24;98876.19;;;21.76;55.73
54306;BME280;66145;45.188;5.712;2023-07-28T04:45:49;98881.34;;;21.77;55.64
54306;BME280;66145;45.188;5.712;2023-07-28T04:48:14;98863.47;;;21.71;55.83
54306;BME280;66145;45.188;5.712;2023-07-28T04:50:40;98872.19;;;21.73;55.70
54306;BME280;66145;45.188;5.712;2023-07-28T04:53:05;98899.13;;;21.80;55.67
54306;BME280;66145;45.188;5.712;2023-07-28T04:55:30;98917.94;;;21.78;55.78
54306;BME280;66145;45.188;5.712;2023-07-28T04:57:56;98920.22;;;21.76;55.75
54306;BME280;66145;45.188;5.712;2023-07-28T05:00:21;98929.16;;;21.72;55.79
54306;BME280;66145;45.188;5.712;2023-07-28T05:02:47;98934.00;;;21.76;55.72
54306;BME280;66145;45.188;5.712;2023-07-28T05:05:12;98911.00;;;21.59;55.66
54306;BME280;66145;45.188;5.712;2023-07-28T05:07:38;98910.19;;;21.58;55.96
54306;BME280;66145;45.188;5.712;2023-07-28T05:10:03;98942.72;;;21.78;55.78
54306;BME280;66145;45.188;5.712;2023-07-28T05:12:29;98946.59;;;21.77;56.01
54306;BME280;66145;45.188;5.712;2023-07-28T05:14:54;98918.22;;;21.51;55.65
54306;BME280;66145;45.188;5.712;2023-07-28T05:17:19;98963.59;;;21.79;55.91
54306;BME280;66145;45.188;5.712;2023-07-28T05:19:45;98961.97;;;21.78;55.93
54306;BME280;66145;45.188;5.712;2023-07-28T05:22:10;98963.91;;;21.77;55.95
54306;BME280;66145;45.188;5.712;2023-07-28T05:24:36;98962.31;;;21.76;56.07
54306;BME280;66145;45.188;5.712;2023-07-28T05:27:01;98947.19;;;21.70;56.04
54306;BME280;66145;45.188;5.712;2023-07-28T05:29:26;98961.63;;;21.79;55.99
54306;BME280;66145;45.188;5.712;2023-07-28T05:31:52;98937.88;;;21.62;55.95
54306;BME280;66145;45.188;5.712;2023-07-28T05:34:17;98944.75;;;21.68;56.12
54306;BME280;66145;45.188;5.712;2023-07-28T05:36:43;98947.50;;;21.68;56.09
54306;BME280;66145;45.188;5.712;2023-07-28T05:39:08;98955.91;;;21.72;55.99
54306;BME280;66145;45.188;5.712;2023-07-28T05:41:34;98967.50;;;21.78;55.97
54306;BME280;66145;45.188;5.712;2023-07-28T05:43:59;98946.03;;;21.71;56.24
54306;BME280;66145;45.188;5.712;2023-07-28T05:46:24;98934.19;;;21.70;56.27
54306;BME280;66145;45.188;5.712;2023-07-28T05:48:50;98937.53;;;21.76;56.44
54306;BME280;66145;45.188;5.712;2023-07-28T05:51:15;98928.69;;;21.70;56.47
54306;BME280;66145;45.188;5.712;2023-07-28T05:53:41;98927.91;;;21.70;56.62
54306;BME280;66145;45.188;5.712;2023-07-28T05:56:06;98925.16;;;21.70;56.39
54306;BME280;66145;45.188;5.712;2023-07-28T05:58:32;98943.03;;;21.76;56.49
54306;BME280;66145;45.188;5.712;2023-07-28T06:00:57;98946.50;;;21.73;56.57
54306;BME280;66145;45.188;5.712;2023-07-28T06:03:22;98945.78;;;21.76;56.61
54306;BME280;66145;45.188;5.712;2023-07-28T06:05:48;98932.59;;;21.69;56.36
54306;BME280;66145;45.188;5.712;2023-07-28T06:08:13;98922.16;;;21.63;56.52
54306;BME280;66145;45.188;5.712;2023-07-28T06:10:39;98952.91;;;21.77;56.87
54306;BME280;66145;45.188;5.712;2023-07-28T06:13:04;98931.34;;;21.79;56.73
54306;BME280;66145;45.188;5.712;2023-07-28T06:15:32;98929.75;;;21.78;56.67
54306;BME280;66145;45.188;5.712;2023-07-28T06:18:00;98918.16;;;21.72;56.61
54306;BME280;66145;45.188;5.712;2023-07-28T06:20:25;98919.97;;;21.68;56.72
54306;BME280;66145;45.188;5.712;2023-07-28T06:22:50;98940.44;;;21.80;56.70
54306;BME280;66145;45.188;5.712;2023-07-28T06:25:16;98923.19;;;21.70;56.64
54306;BME280;66145;45.188;5.712;2023-07-28T06:27:41;98926.19;;;21.78;56.73
54306;BME280;66145;45.188;5.712;2023-07-28T06:30:08;98915.50;;;21.64;56.80
54306;BME280;66145;45.188;5.712;2023-07-28T06:32:33;98938.47;;;21.80;56.97
54306;BME280;66145;45.188;5.712;2023-07-28T06:34:59;98916.91;;;21.70;56.93
54306;BME280;66145;45.188;5.712;2023-07-28T06:37:24;98941.22;;;21.80;56.92
54306;BME280;66145;45.188;5.712;2023-07-28T06:39:49;98940.75;;;21.78;56.92
54306;BME280;66145;45.188;5.712;2023-07-28T06:42:16;98950.28;;;21.81;56.93
54306;BME280;66145;45.188;5.712;2023-07-28T06:44:45;98943.84;;;21.77;57.18
54306;BME280;66145;45.188;5.712;2023-07-28T06:47:11;98947.88;;;21.79;57.11
54306;BME280;66145;45.188;5.712;2023-07-28T06:49:36;98953.72;;;21.78;57.17
54306;BME280;66145;45.188;5.712;2023-07-28T06:52:01;98945.78;;;21.76;57.23
54306;BME280;66145;45.188;5.712;2023-07-28T06:54:27;98960.03;;;21.78;57.20
54306;BME280;66145;45.188;5.712;2023-07-28T06:56:52;98954.41;;;21.75;57.22
54306;BME280;66145;45.188;5.712;2023-07-28T06:59:18;98960.38;;;21.77;57.30
54306;BME280;66145;45.188;5.712;2023-07-28T07:01:43;98960.03;;;21.78;57.24
54306;BME280;66145;45.188;5.712;2023-07-28T07:04:08;98956.34;;;21.74;57.36
54306;BME280;66145;45.188;5.712;2023-07-28T07:06:34;98963.59;;;21.79;57.40
54306;BME280;66145;45.188;5.712;2023-07-28T07:08:59;98938.66;;;21.63;57.54
54306;BME280;66145;45.188;5.712;2023-07-28T07:11:24;98969.78;;;21.76;57.54
54306;BME280;66145;45.188;5.712;2023-07-28T07:13:50;98966.09;;;21.71;57.43
54306;BME280;66145;45.188;5.712;2023-07-28T07:16:16;98986.41;;;21.79;57.34
54306;BME280;66145;45.188;5.712;2023-07-28T07:18:45;98977.69;;;21.77;57.62
54306;BME280;66145;45.188;5.712;2023-07-28T07:21:10;98974.03;;;21.73;57.67
54306;BME280;66145;45.188;5.712;2023-07-28T07:23:36;98988.84;;;21.81;57.42
54306;BME280;66145;45.188;5.712;2023-07-28T07:26:02;98988.84;;;21.81;57.71
54306;BME280;66145;45.188;5.712;2023-07-28T07:28:27;98986.41;;;21.79;57.77
54306;BME280;66145;45.188;5.712;2023-07-28T07:30:54;98963.69;;;21.70;57.85
54306;BME280;66145;45.188;5.712;2023-07-28T07:33:19;98980.44;;;21.77;57.58
54306;BME280;66145;45.188;5.712;2023-07-28T07:35:45;98967.69;;;21.72;57.76
54306;BME280;66145;45.188;5.712;2023-07-28T07:38:10;98973.09;;;21.81;57.71
54306;BME280;66145;45.188;5.712;2023-07-28T07:40:36;98953.81;;;21.69;57.91
54306;BME280;66145;45.188;5.712;2023-07-28T07:43:01;98968.94;;;21.75;57.69
54306;BME280;66145;45.188;5.712;2023-07-28T07:45:28;98974.59;;;21.79;57.59
54306;BME280;66145;45.188;5.712;2023-07-28T07:47:54;98969.41;;;21.77;57.53
54306;BME280;66145;45.188;5.712;2023-07-28T07:50:20;98964.94;;;21.72;57.74
54306;BME280;66145;45.188;5.712;2023-07-28T07:52:47;98965.41;;;21.75;57.50
54306;BME280;66145;45.188;5.712;2023-07-28T07:55:12;98977.47;;;21.82;57.57
54306;BME280;66145;45.188;5.712;2023-07-28T07:57:38;98954.75;;;21.73;57.35
54306;BME280;66145;45.188;5.712;2023-07-28T08:00:03;98951.19;;;21.72;57.52
54306;BME280;66145;45.188;5.712;2023-07-28T08:02:29;98960.16;;;21.82;57.58
54306;BME280;66145;45.188;5.712;2023-07-28T08:04:54;98962.91;;;21.82;57.89
54306;BME280;66145;45.188;5.712;2023-07-28T08:07:20;98949.00;;;21.78;57.62
54306;BME280;66145;45.188;5.712;2023-07-28T08:09:46;98953.84;;;21.81;57.42
54306;BME280;66145;45.188;5.712;2023-07-28T08:12:12;98947.06;;;21.79;57.52
54306;BME280;66145;45.188;5.712;2023-07-28T08:14:38;98941.56;;;21.79;57.19
54306;BME280;66145;45.188;5.712;2023-07-28T08:17:03;98949.81;;;21.79;57.21
54306;BME280;66145;45.188;5.712;2023-07-28T08:19:29;98949.94;;;21.82;57.21
54306;BME280;66145;45.188;5.712;2023-07-28T08:21:54;98948.31;;;21.81;57.51
54306;BME280;66145;45.188;5.712;2023-07-28T08:24:19;98937.88;;;21.75;57.39
54306;BME280;66145;45.188;5.712;2023-07-28T08:26:45;98922.25;;;21.66;56.96
54306;BME280;66145;45.188;5.712;2023-07-28T08:29:10;98912.28;;;21.62;56.98
54306;BME280;66145;45.188;5.712;2023-07-28T08:31:36;98929.16;;;21.72;57.05
54306;BME280;66145;45.188;5.712;2023-07-28T08:34:01;98935.91;;;21.75;57.03
54306;BME280;66145;45.188;5.712;2023-07-28T08:36:28;98941.69;;;21.82;57.14
54306;BME280;66145;45.188;5.712;2023-07-28T08:38:53;98946.03;;;21.83;56.85
54306;BME280;66145;45.188;5.712;2023-07-28T08:41:19;98936.06;;;21.79;57.20
54306;BME280;66145;45.188;5.712;2023-07-28T08:43:44;98940.44;;;21.80;57.33
54306;BME280;66145;45.188;5.712;2023-07-28T08:46:10;98935.38;;;21.82;57.30
54306;BME280;66145;45.188;5.712;2023-07-28T08:48:35;98934.91;;;21.80;57.61
54306;BME280;66145;45.188;5.712;2023-07-28T08:51:02;98924.69;;;21.80;57.73
54306;BME280;66145;45.188;5.712;2023-07-28T08:53:27;98918.25;;;21.76;57.22
54306;BME280;66145;45.188;5.712;2023-07-28T08:55:52;98929.53;;;21.83;57.43
54306;BME280;66145;45.188;5.712;2023-07-28T08:58:22;98912.53;;;21.69;57.41
54306;BME280;66145;45.188;5.712;2023-07-28T09:00:50;98890.00;;;21.54;57.39
54306;BME280;66145;45.188;5.712;2023-07-28T09:03:19;98937.78;;;21.83;57.22
54306;BME280;66145;45.188;5.712;2023-07-28T09:05:45;98922.16;;;21.75;57.50
54306;BME280;66145;45.188;5.712;2023-07-28T09:08:14;98935.81;;;21.84;57.33
54306;BME280;66145;45.188;5.712;2023-07-28T09:10:43;98932.97;;;21.80;57.24
54306;BME280;66145;45.188;5.712;2023-07-28T09:13:11;98919.66;;;21.70;57.18
54306;BME280;66145;45.188;5.712;2023-07-28T09:15:37;98946.03;;;21.83;57.14
54306;BME280;66145;45.188;5.712;2023-07-28T09:18:03;98949.59;;;21.84;57.36
54306;BME280;66145;45.188;5.712;2023-07-28T09:20:34;98952.34;;;21.84;57.42
54306;BME280;66145;45.188;5.712;2023-07-28T09:23:03;98938.13;;;21.82;57.40
54306;BME280;66145;45.188;5.712;2023-07-28T09:25:31;98926.31;;;21.81;57.50
54306;BME280;66145;45.188;5.712;2023-07-28T09:27:57;98890.47;;;21.56;57.34
54306;BME280;66145;45.188;5.712;2023-07-28T09:30:24;98919.88;;;21.77;57.36
54306;BME280;66145;45.188;5.712;2023-07-28T09:32:54;98895.28;;;21.60;56.98
54306;BME280;66145;45.188;5.712;2023-07-28T09:35:22;98935.81;;;21.84;57.10
54306;BME280;66145;45.188;5.712;2023-07-28T09:37:49;98903.72;;;21.63;56.95
54306;BME280;66145;45.188;5.712;2023-07-28T09:40:20;98933.06;;;21.84;56.88
54306;BME280;66145;45.188;5.712;2023-07-28T09:42:47;98921.47;;;21.78;57.07
54306;BME280;66145;45.188;5.712;2023-07-28T09:45:17;98918.50;;;21.83;57.02
54306;BME280;66145;45.188;5.712;2023-07-28T09:47:47;98909.22;;;21.76;56.86
54306;BME280;66145;45.188;5.712;2023-07-28T09:50:17;98915.75;;;21.83;56.99
54306;BME280;66145;45.188;5.712;2023-07-28T09:52:46;98897.28;;;21.71;56.90
54306;BME280;66145;45.188;5.712;2023-07-28T09:55:12;98913.47;;;21.85;56.99
54306;BME280;66145;45.188;5.712;2023-07-28T09:57:45;98900.03;;;21.84;56.78
54306;BME280;66145;45.188;5.712;2023-07-28T10:00:13;98895.22;;;21.81;57.03
54306;BME280;66145;45.188;5.712;2023-07-28T10:02:39;98901.19;;;21.83;56.83
54306;BME280;66145;45.188;5.712;2023-07-28T10:05:06;98893.16;;;21.78;56.87
54306;BME280;66145;45.188;5.712;2023-07-28T10:07:34;98894.88;;;21.82;56.81
54306;BME280;66145;45.188;5.712;2023-07-28T10:10:02;98884.34;;;21.84;56.89
54306;BME280;66145;45.188;5.712;2023-07-28T10:12:28;98894.97;;;21.86;56.88
54306;BME280;66145;45.188;5.712;2023-07-28T10:15:03;98891.66;;;21.80;56.79
54306;BME280;66145;45.188;5.712;2023-07-28T10:17:32;98870.22;;;21.73;56.77
54306;BME280;66145;45.188;5.712;2023-07-28T10:19:57;98882.72;;;21.83;57.02
54306;BME280;66145;45.188;5.712;2023-07-28T10:22:26;98890.28;;;21.86;56.73
54306;BME280;66145;45.188;5.712;2023-07-28T10:24:53;98878.34;;;21.82;56.64
54306;BME280;66145;45.188;5.712;2023-07-28T10:30:00;98876.19;;;21.88;56.67
54306;BME280;66145;45.188;5.712;2023-07-28T10:32:27;98859.44;;;21.81;56.84
54306;BME280;66145;45.188;5.712;2023-07-28T10:35:00;98856.22;;;21.79;56.70
54306;BME280;66145;45.188;5.712;2023-07-28T10:37:25;98862.78;;;21.86;56.71
54306;BME280;66145;45.188;5.712;2023-07-28T10:43:03;98857.59;;;21.85;56.77
54306;BME280;66145;45.188;5.712;2023-07-28T10:45:31;98860.81;;;21.87;56.57
54306;BME280;66145;45.188;5.712;2023-07-28T10:47:57;98836.81;;;21.75;56.60
54306;BME280;66145;45.188;5.712;2023-07-28T10:50:27;98853.22;;;21.84;56.72
54306;BME280;66145;45.188;5.712;2023-07-28T10:52:53;98859.66;;;21.88;56.53
54306;BME280;66145;45.188;5.712;2023-07-28T10:55:20;98818.72;;;21.62;56.84
54306;BME280;66145;45.188;5.712;2023-07-28T10:57:46;98857.72;;;21.88;56.83
54306;BME280;66145;45.188;5.712;2023-07-28T11:00:15;98850.16;;;21.85;56.87
54306;BME280;66145;45.188;5.712;2023-07-28T11:05:11;98843.97;;;21.88;56.47
54306;BME280;66145;45.188;5.712;2023-07-28T11:07:40;98834.09;;;21.87;56.95
54306;BME280;66145;45.188;5.712;2023-07-28T11:10:05;98811.16;;;21.71;56.80
54306;BME280;66145;45.188;5.712;2023-07-28T11:12:32;98828.13;;;21.85;56.81
54306;BME280;66145;45.188;5.712;2023-07-28T11:14:57;98827.44;;;21.88;56.66
54306;BME280;66145;45.188;5.712;2023-07-28T11:17:24;98815.84;;;21.83;56.78
54306;BME280;66145;45.188;5.712;2023-07-28T11:19:49;98819.59;;;21.91;56.79
54306;BME280;66145;45.188;5.712;2023-07-28T11:22:16;98821.81;;;21.85;56.64
54306;BME280;66145;45.188;5.712;2023-07-28T11:24:42;98830.28;;;21.92;56.74
54306;BME280;66145;45.188;5.712;2023-07-28T11:27:07;98827.53;;;21.92;56.75
54306;BME280;66145;45.188;5.712;2023-07-28T11:29:33;98808.38;;;21.83;57.00
54306;BME280;66145;45.188;5.712;2023-07-28T11:32:00;98797.84;;;21.73;56.92
54306;BME280;66145;45.188;5.712;2023-07-28T11:34:25;98827.19;;;21.94;56.67
54306;BME280;66145;45.188;5.712;2023-07-28T11:36:51;98831.91;;;21.93;56.81
54306;BME280;66145;45.188;5.712;2023-07-28T11:39:16;98808.38;;;21.83;56.73
54306;BME280;66145;45.188;5.712;2023-07-28T11:41:42;98826.03;;;21.95;56.84
54306;BME280;66145;45.188;5.712;2023-07-28T11:44:08;98834.28;;;21.95;56.92
54306;BME280;66145;45.188;5.712;2023-07-28T11:46:39;98815.59;;;21.88;56.83
54306;BME280;66145;45.188;5.712;2023-07-28T11:51:38;98820.31;;;21.87;56.79
54306;BME280;66145;45.188;5.712;2023-07-28T11:54:05;98828.00;;;21.94;56.76
54306;BME280;66145;45.188;5.712;2023-07-28T11:56:31;98825.56;;;21.93;56.90
54306;BME280;66145;45.188;5.712;2023-07-28T11:58:56;98820.66;;;21.86;56.77
54306;BME280;66145;45.188;5.712;2023-07-28T12:01:23;98795.66;;;21.79;57.02
54306;BME280;66145;45.188;5.712;2023-07-28T12:03:48;98825.25;;;21.94;56.90
54306;BME280;66145;45.188;5.712;2023-07-28T12:06:14;98821.00;;;21.97;56.99
54306;BME280;66145;45.188;5.712;2023-07-28T12:08:39;98811.13;;;21.96;56.94
54306;BME280;66145;45.188;5.712;2023-07-28T12:11:05;98793.59;;;21.88;56.99
54306;BME280;66145;45.188;5.712;2023-07-28T12:13:31;98784.53;;;21.87;56.76
54306;BME280;66145;45.188;5.712;2023-07-28T12:15:57;98783.94;;;21.94;57.07
54306;BME280;66145;45.188;5.712;2023-07-28T12:18:22;98791.53;;;21.97;57.26
54306;BME280;66145;45.188;5.712;2023-07-28T12:20:51;98776.59;;;21.86;56.79
54306;BME280;66145;45.188;5.712;2023-07-28T12:23:17;98776.16;;;21.84;56.93
54306;BME280;66145;45.188;5.712;2023-07-28T12:25:43;98805.72;;;21.99;57.03
54306;BME280;66145;45.188;5.712;2023-07-28T12:28:10;98792.34;;;21.85;57.01
54306;BME280;66145;45.188;5.712;2023-07-28T12:30:36;98774.44;;;21.79;56.88
54306;BME280;66145;45.188;5.712;2023-07-28T12:33:02;98813.19;;;21.99;56.84
54306;BME280;66145;45.188;5.712;2023-07-28T12:35:29;98808.03;;;21.97;56.97
54306;BME280;66145;45.188;5.712;2023-07-28T12:38:00;98784.53;;;21.87;56.98
54306;BME280;66145;45.188;5.712;2023-07-28T12:40:27;98801.47;;;22.02;56.97
54306;BME280;66145;45.188;5.712;2023-07-28T12:42:53;98800.66;;;22.01;57.07
54306;BME280;66145;45.188;5.712;2023-07-28T12:45:19;98773.97;;;21.77;57.00
54306;BME280;66145;45.188;5.712;2023-07-28T12:47:46;98792.22;;;21.94;57.08
54306;BME280;66145;45.188;5.712;2023-07-28T12:50:11;98801.47;;;22.02;56.94
54306;BME280;66145;45.188;5.712;2023-07-28T12:52:37;98788.75;;;21.97;56.91
54306;BME280;66145;45.188;5.712;2023-07-28T12:55:03;98796.31;;;22.00;56.89
54306;BME280;66145;45.188;5.712;2023-07-28T12:57:28;98786.34;;;21.96;57.08
54306;BME280;66145;45.188;5.712;2023-07-28T12:59:54;98775.69;;;21.94;57.12
54306;BME280;66145;45.188;5.712;2023-07-28T13:02:19;98793.56;;;22.00;57.01
54306;BME280;66145;45.188;5.712;2023-07-28T13:04:44;98795.16;;;22.01;56.89